Koniz, Switzerland

1:55 AM CET op 26 februari 2017 (GMT +0100)
Landorfstrasse | | Change Station

Hoogte 1902 ft 46.92 °N, 7.41 °E | Updated 2 minutes ago

Helder
Helder
37.2 °F
Voelt als 37 °F
N
0.6
Wind Variabel Wind van ZZW
Gusts 1.9 mijl/u

Vandaag
Hoog -- | Laag -- °F
--% Kans op neerslag
Gisteren
Hoog -- | Laag -- °F
Precip. -- inches
Druk 30.09 inches
Zicht 6.2 mijlen
Wolken
Gevoelstemperatuur 37 °F
Dauwpunt 30 °F
Vochtigheid 74%
Neerslag 0.00 inches
Dikte sneeuw Niet beschikbaar.
7:15 AM 6:11 PM
Afnemende halvemaan, 0% visible
METAR LSZB 260050Z AUTO 13001KT 9999 NSC M02/M03 Q1019
Druk 30.09 inches
Zicht 6.2 mijlen
Wolken
Gevoelstemperatuur 37 °F
Dauwpunt 30 °F
Vochtigheid 74%
Neerslag 0.00 inches
Dikte sneeuw Niet beschikbaar.
7:15 AM 6:11 PM
Afnemende halvemaan, 0% visible
METAR LSZB 260050Z AUTO 13001KT 9999 NSC M02/M03 Q1019

Get Your Daily Forecast Email!

Thanks for signing up!

Be on the lookout for a verification email in your inbox.

You'll start receiving the daily forecast at 8 AM.

×

10-Day Weather Forecast

×

Almanac

Astronomie

Feb. 26, 2017 Opkomst Ondergang
Werkelijke tijd
Burgerlijke schemering
Nautische schemering
Astronomische schemering
Maan
Golflengte van het zichtbare licht
Daglengte
Tomorrow will be .
, % of the Moon is Illuminated

Extremen vandaag

Country Highs Country Lows

Community

WunderPhotos

Upload Photos

1,962,540 foto’s ge-upload!

WunderBlog® & News

Nearby

Luchtkwaliteit

  Luchtkwaliteit LK-index Verontreinigende stof
Not available.

Dikte sneeuw

Station Depth Geometrische hoogte

Aardbevingen

Stad Distance Mag. Time & Date
Minimum magnitude displayed is 2.5.

Watertemperatuur langs de kust

Plaats Temperatuur

Stations

Nabije weerstations

Locatie station Temp. Gevoelstemperatuur Dauwpunt Vochtigheid Wind Precip. Hoogte Geactualiseerd Type